KWHP/WHP METAR and TAF weather

Enter ICAO airport designator
Station Type Date Time Source
KWHP METAR 2020/09/26 23:55 UTC NOAA

KWHP 262355Z 00000KT 10SM SKC 28/15 A2989


Station Type Date Time Source
KWHP Decoded METAR 2020/09/26 23:55 UTC NOAA

Los Angeles, Whiteman Airport, CA, United States (KWHP) 34-15N 118-24W
Sep 26, 2020 - 07:55 PM EDT / 2020.09.26 2355 UTC
Wind: Calm:0
Visibility: 10 mile(s):0
Sky conditions: clear
Temperature: 82 F (28 C)
Dew Point: 59 F (15 C)
Relative Humidity: 45%
Pressure (altimeter): 29.89 in. Hg (1012 hPa)
ob: KWHP 262355Z 00000KT 10SM SKC 28/15 A2989
cycle: 0

Station Type Date Time Source
KWHP TAF UTC NOAA

Error!

Example: see airport list